sensor_id;sensor_type;location;lat;lon;timestamp;P1;durP1;ratioP1;P2;durP2;ratioP2
70920;SDS011;58572;48.110;19.838;2023-02-01T00:01:06;8.88;;;2.70;;
70920;SDS011;58572;48.110;19.838;2023-02-01T00:03:34;13.10;;;3.90;;
70920;SDS011;58572;48.110;19.838;2023-02-01T00:06:02;11.35;;;3.78;;
70920;SDS011;58572;48.110;19.838;2023-02-01T00:08:29;10.57;;;3.22;;
70920;SDS011;58572;48.110;19.838;2023-02-01T00:10:59;10.18;;;3.38;;
70920;SDS011;58572;48.110;19.838;2023-02-01T00:13:28;10.05;;;3.95;;
70920;SDS011;58572;48.110;19.838;2023-02-01T00:16:01;7.97;;;2.90;;
70920;SDS011;58572;48.110;19.838;2023-02-01T00:18:31;7.80;;;3.08;;
70920;SDS011;58572;48.110;19.838;2023-02-01T00:20:58;8.80;;;3.28;;
70920;SDS011;58572;48.110;19.838;2023-02-01T00:23:25;12.93;;;3.40;;
70920;SDS011;58572;48.110;19.838;2023-02-01T00:25:53;10.88;;;3.85;;
70920;SDS011;58572;48.110;19.838;2023-02-01T00:28:20;5.75;;;3.03;;
70920;SDS011;58572;48.110;19.838;2023-02-01T00:30:54;11.48;;;3.55;;
70920;SDS011;58572;48.110;19.838;2023-02-01T00:33:22;9.98;;;3.63;;
70920;SDS011;58572;48.110;19.838;2023-02-01T00:35:51;10.52;;;3.63;;
70920;SDS011;58572;48.110;19.838;2023-02-01T00:38:23;10.95;;;3.72;;
70920;SDS011;58572;48.110;19.838;2023-02-01T00:40:50;8.10;;;3.78;;
70920;SDS011;58572;48.110;19.838;2023-02-01T00:43:18;12.85;;;4.18;;
70920;SDS011;58572;48.110;19.838;2023-02-01T00:45:45;12.73;;;4.15;;
70920;SDS011;58572;48.110;19.838;2023-02-01T00:48:13;9.02;;;3.55;;
70920;SDS011;58572;48.110;19.838;2023-02-01T00:50:41;13.68;;;4.20;;
70920;SDS011;58572;48.110;19.838;2023-02-01T00:53:09;8.63;;;3.33;;
70920;SDS011;58572;48.110;19.838;2023-02-01T00:55:37;9.85;;;4.45;;
70920;SDS011;58572;48.110;19.838;2023-02-01T00:58:04;8.27;;;3.25;;
70920;SDS011;58572;48.110;19.838;2023-02-01T01:00:34;4.18;;;1.83;;
70920;SDS011;58572;48.110;19.838;2023-02-01T01:03:02;6.03;;;3.03;;
70920;SDS011;58572;48.110;19.838;2023-02-01T01:05:42;10.55;;;3.83;;
70920;SDS011;58572;48.110;19.838;2023-02-01T01:08:11;10.13;;;3.50;;
70920;SDS011;58572;48.110;19.838;2023-02-01T01:10:39;11.93;;;3.92;;
70920;SDS011;58572;48.110;19.838;2023-02-01T01:13:07;12.68;;;3.65;;
70920;SDS011;58572;48.110;19.838;2023-02-01T01:15:35;14.35;;;5.05;;
70920;SDS011;58572;48.110;19.838;2023-02-01T01:18:03;7.28;;;3.30;;
70920;SDS011;58572;48.110;19.838;2023-02-01T01:20:30;8.15;;;3.13;;
70920;SDS011;58572;48.110;19.838;2023-02-01T01:22:58;8.38;;;4.03;;
70920;SDS011;58572;48.110;19.838;2023-02-01T01:25:26;7.53;;;4.25;;
70920;SDS011;58572;48.110;19.838;2023-02-01T01:27:54;6.15;;;3.47;;
70920;SDS011;58572;48.110;19.838;2023-02-01T01:30:21;7.60;;;2.97;;
70920;SDS011;58572;48.110;19.838;2023-02-01T01:32:48;9.45;;;3.50;;
70920;SDS011;58572;48.110;19.838;2023-02-01T01:35:16;6.85;;;3.25;;
70920;SDS011;58572;48.110;19.838;2023-02-01T01:37:43;6.70;;;2.67;;
70920;SDS011;58572;48.110;19.838;2023-02-01T01:40:11;11.50;;;3.38;;
70920;SDS011;58572;48.110;19.838;2023-02-01T01:42:40;7.50;;;3.22;;
70920;SDS011;58572;48.110;19.838;2023-02-01T01:45:16;5.75;;;3.03;;
70920;SDS011;58572;48.110;19.838;2023-02-01T01:47:47;6.70;;;3.13;;
70920;SDS011;58572;48.110;19.838;2023-02-01T01:50:17;6.55;;;3.15;;
70920;SDS011;58572;48.110;19.838;2023-02-01T01:52:49;5.38;;;2.92;;
70920;SDS011;58572;48.110;19.838;2023-02-01T01:55:20;5.32;;;2.95;;
70920;SDS011;58572;48.110;19.838;2023-02-01T01:57:54;7.60;;;3.05;;
70920;SDS011;58572;48.110;19.838;2023-02-01T02:00:26;5.40;;;3.00;;
70920;SDS011;58572;48.110;19.838;2023-02-01T02:02:54;9.32;;;3.65;;
70920;SDS011;58572;48.110;19.838;2023-02-01T02:05:25;7.85;;;3.03;;
70920;SDS011;58572;48.110;19.838;2023-02-01T02:07:54;6.88;;;2.95;;
70920;SDS011;58572;48.110;19.838;2023-02-01T02:10:25;11.27;;;3.50;;
70920;SDS011;58572;48.110;19.838;2023-02-01T02:13:15;7.93;;;3.05;;
70920;SDS011;58572;48.110;19.838;2023-02-01T02:15:45;7.20;;;3.03;;
70920;SDS011;58572;48.110;19.838;2023-02-01T02:18:23;8.30;;;2.78;;
70920;SDS011;58572;48.110;19.838;2023-02-01T02:23:52;5.50;;;2.17;;
70920;SDS011;58572;48.110;19.838;2023-02-01T02:29:53;7.85;;;2.90;;
70920;SDS011;58572;48.110;19.838;2023-02-01T02:35:45;4.57;;;2.33;;
70920;SDS011;58572;48.110;19.838;2023-02-01T02:38:16;6.07;;;2.97;;
70920;SDS011;58572;48.110;19.838;2023-02-01T02:40:51;6.72;;;2.53;;
70920;SDS011;58572;48.110;19.838;2023-02-01T02:43:25;5.65;;;2.63;;
70920;SDS011;58572;48.110;19.838;2023-02-01T02:46:16;6.03;;;2.50;;
70920;SDS011;58572;48.110;19.838;2023-02-01T02:49:08;6.22;;;3.08;;
70920;SDS011;58572;48.110;19.838;2023-02-01T02:51:42;6.78;;;3.25;;
70920;SDS011;58572;48.110;19.838;2023-02-01T02:54:29;4.72;;;2.70;;
70920;SDS011;58572;48.110;19.838;2023-02-01T02:57:25;8.10;;;3.08;;
70920;SDS011;58572;48.110;19.838;2023-02-01T03:00:12;4.80;;;2.25;;
70920;SDS011;58572;48.110;19.838;2023-02-01T03:03:00;4.10;;;2.33;;
70920;SDS011;58572;48.110;19.838;2023-02-01T03:05:46;8.07;;;2.72;;
70920;SDS011;58572;48.110;19.838;2023-02-01T03:08:18;4.53;;;2.42;;
70920;SDS011;58572;48.110;19.838;2023-02-01T03:10:53;6.95;;;2.20;;
70920;SDS011;58572;48.110;19.838;2023-02-01T03:13:27;5.43;;;2.95;;
70920;SDS011;58572;48.110;19.838;2023-02-01T03:16:00;4.07;;;2.33;;
70920;SDS011;58572;48.110;19.838;2023-02-01T03:18:33;5.82;;;2.40;;
70920;SDS011;58572;48.110;19.838;2023-02-01T03:21:08;10.07;;;3.80;;
70920;SDS011;58572;48.110;19.838;2023-02-01T03:23:40;5.72;;;2.80;;
70920;SDS011;58572;48.110;19.838;2023-02-01T03:26:10;4.95;;;2.15;;
70920;SDS011;58572;48.110;19.838;2023-02-01T03:28:41;7.28;;;2.88;;
70920;SDS011;58572;48.110;19.838;2023-02-01T03:31:12;6.53;;;2.45;;
70920;SDS011;58572;48.110;19.838;2023-02-01T03:33:39;5.38;;;2.70;;
70920;SDS011;58572;48.110;19.838;2023-02-01T03:36:10;5.78;;;2.42;;
70920;SDS011;58572;48.110;19.838;2023-02-01T03:38:50;5.28;;;2.67;;
70920;SDS011;58572;48.110;19.838;2023-02-01T03:41:24;6.55;;;2.90;;
70920;SDS011;58572;48.110;19.838;2023-02-01T03:43:56;7.55;;;2.83;;
70920;SDS011;58572;48.110;19.838;2023-02-01T03:46:29;4.85;;;2.35;;
70920;SDS011;58572;48.110;19.838;2023-02-01T03:49:00;6.30;;;2.95;;
70920;SDS011;58572;48.110;19.838;2023-02-01T03:51:31;5.82;;;2.70;;
70920;SDS011;58572;48.110;19.838;2023-02-01T03:54:02;5.22;;;2.58;;
70920;SDS011;58572;48.110;19.838;2023-02-01T03:56:33;5.38;;;2.88;;
70920;SDS011;58572;48.110;19.838;2023-02-01T03:59:04;6.82;;;3.05;;
70920;SDS011;58572;48.110;19.838;2023-02-01T04:01:31;6.15;;;2.88;;
70920;SDS011;58572;48.110;19.838;2023-02-01T04:03:58;6.75;;;3.15;;
70920;SDS011;58572;48.110;19.838;2023-02-01T04:06:25;3.30;;;2.28;;
70920;SDS011;58572;48.110;19.838;2023-02-01T04:08:53;4.93;;;2.75;;
70920;SDS011;58572;48.110;19.838;2023-02-01T04:11:22;7.75;;;2.85;;
70920;SDS011;58572;48.110;19.838;2023-02-01T04:13:49;11.55;;;5.13;;
70920;SDS011;58572;48.110;19.838;2023-02-01T04:16:16;3.83;;;2.05;;
70920;SDS011;58572;48.110;19.838;2023-02-01T04:18:43;3.88;;;2.10;;
70920;SDS011;58572;48.110;19.838;2023-02-01T04:21:11;7.57;;;2.90;;
70920;SDS011;58572;48.110;19.838;2023-02-01T04:23:38;6.28;;;2.72;;
70920;SDS011;58572;48.110;19.838;2023-02-01T04:26:05;7.78;;;3.10;;
70920;SDS011;58572;48.110;19.838;2023-02-01T04:28:34;9.13;;;5.03;;
70920;SDS011;58572;48.110;19.838;2023-02-01T04:31:01;6.10;;;2.83;;
70920;SDS011;58572;48.110;19.838;2023-02-01T04:33:28;32.25;;;8.60;;
70920;SDS011;58572;48.110;19.838;2023-02-01T04:35:57;36.92;;;10.45;;
70920;SDS011;58572;48.110;19.838;2023-02-01T04:38:24;182.93;;;56.00;;
70920;SDS011;58572;48.110;19.838;2023-02-01T04:40:52;119.60;;;40.20;;
70920;SDS011;58572;48.110;19.838;2023-02-01T04:43:19;41.63;;;16.70;;
70920;SDS011;58572;48.110;19.838;2023-02-01T04:45:48;18.30;;;7.30;;
70920;SDS011;58572;48.110;19.838;2023-02-01T04:48:15;13.95;;;5.50;;
70920;SDS011;58572;48.110;19.838;2023-02-01T04:53:12;9.13;;;3.90;;
70920;SDS011;58572;48.110;19.838;2023-02-01T04:55:40;7.70;;;3.13;;
70920;SDS011;58572;48.110;19.838;2023-02-01T04:58:08;6.10;;;2.60;;
70920;SDS011;58572;48.110;19.838;2023-02-01T05:00:36;4.38;;;2.42;;
70920;SDS011;58572;48.110;19.838;2023-02-01T05:03:05;5.30;;;2.45;;
70920;SDS011;58572;48.110;19.838;2023-02-01T05:05:32;5.63;;;2.05;;
70920;SDS011;58572;48.110;19.838;2023-02-01T05:07:59;4.72;;;2.40;;
70920;SDS011;58572;48.110;19.838;2023-02-01T05:10:26;41.97;;;15.43;;
70920;SDS011;58572;48.110;19.838;2023-02-01T05:12:54;5.15;;;2.63;;
70920;SDS011;58572;48.110;19.838;2023-02-01T05:15:38;7.32;;;2.65;;
70920;SDS011;58572;48.110;19.838;2023-02-01T05:18:07;5.45;;;2.42;;
70920;SDS011;58572;48.110;19.838;2023-02-01T05:20:34;5.45;;;2.60;;
70920;SDS011;58572;48.110;19.838;2023-02-01T05:23:01;11.07;;;4.75;;
70920;SDS011;58572;48.110;19.838;2023-02-01T05:25:28;9.40;;;4.03;;
70920;SDS011;58572;48.110;19.838;2023-02-01T05:27:55;6.60;;;2.95;;
70920;SDS011;58572;48.110;19.838;2023-02-01T05:30:22;6.28;;;2.45;;
70920;SDS011;58572;48.110;19.838;2023-02-01T05:32:51;5.25;;;2.50;;
70920;SDS011;58572;48.110;19.838;2023-02-01T05:35:20;4.68;;;3.03;;
70920;SDS011;58572;48.110;19.838;2023-02-01T05:37:47;4.47;;;2.35;;
70920;SDS011;58572;48.110;19.838;2023-02-01T05:40:15;4.90;;;2.22;;
70920;SDS011;58572;48.110;19.838;2023-02-01T05:42:42;5.35;;;2.63;;
70920;SDS011;58572;48.110;19.838;2023-02-01T05:45:09;5.18;;;2.30;;
70920;SDS011;58572;48.110;19.838;2023-02-01T05:47:37;12.60;;;4.93;;
70920;SDS011;58572;48.110;19.838;2023-02-01T05:50:04;5.80;;;2.83;;
70920;SDS011;58572;48.110;19.838;2023-02-01T05:52:34;4.60;;;2.53;;
70920;SDS011;58572;48.110;19.838;2023-02-01T05:55:01;5.75;;;2.67;;
70920;SDS011;58572;48.110;19.838;2023-02-01T05:57:28;5.88;;;2.70;;
70920;SDS011;58572;48.110;19.838;2023-02-01T05:59:55;46.35;;;12.90;;
70920;SDS011;58572;48.110;19.838;2023-02-01T06:02:23;14.27;;;5.78;;
70920;SDS011;58572;48.110;19.838;2023-02-01T06:04:50;16.70;;;6.30;;
70920;SDS011;58572;48.110;19.838;2023-02-01T06:07:17;15.95;;;6.35;;
70920;SDS011;58572;48.110;19.838;2023-02-01T06:09:46;11.75;;;4.47;;
70920;SDS011;58572;48.110;19.838;2023-02-01T06:12:13;6.95;;;3.25;;
70920;SDS011;58572;48.110;19.838;2023-02-01T06:14:41;5.57;;;2.75;;
70920;SDS011;58572;48.110;19.838;2023-02-01T06:17:08;8.85;;;3.95;;
70920;SDS011;58572;48.110;19.838;2023-02-01T06:19:35;5.50;;;2.65;;
70920;SDS011;58572;48.110;19.838;2023-02-01T06:22:02;4.43;;;2.58;;
70920;SDS011;58572;48.110;19.838;2023-02-01T06:24:31;5.53;;;2.72;;
70920;SDS011;58572;48.110;19.838;2023-02-01T06:26:59;5.13;;;2.58;;
70920;SDS011;58572;48.110;19.838;2023-02-01T06:29:27;5.45;;;2.60;;
70920;SDS011;58572;48.110;19.838;2023-02-01T06:31:54;5.63;;;2.42;;
70920;SDS011;58572;48.110;19.838;2023-02-01T06:34:21;7.43;;;3.17;;
70920;SDS011;58572;48.110;19.838;2023-02-01T06:36:49;5.57;;;2.70;;
70920;SDS011;58572;48.110;19.838;2023-02-01T06:39:16;5.22;;;2.50;;
70920;SDS011;58572;48.110;19.838;2023-02-01T06:41:45;3.78;;;2.08;;
70920;SDS011;58572;48.110;19.838;2023-02-01T06:44:14;3.53;;;2.03;;
70920;SDS011;58572;48.110;19.838;2023-02-01T06:46:42;3.60;;;1.67;;
70920;SDS011;58572;48.110;19.838;2023-02-01T06:49:09;6.40;;;2.50;;
70920;SDS011;58572;48.110;19.838;2023-02-01T06:51:36;3.78;;;1.85;;
70920;SDS011;58572;48.110;19.838;2023-02-01T06:54:03;3.85;;;2.05;;
70920;SDS011;58572;48.110;19.838;2023-02-01T06:56:31;5.10;;;2.10;;
70920;SDS011;58572;48.110;19.838;2023-02-01T06:58:58;4.45;;;1.83;;
70920;SDS011;58572;48.110;19.838;2023-02-01T07:01:27;4.95;;;2.35;;
70920;SDS011;58572;48.110;19.838;2023-02-01T07:03:54;4.65;;;1.92;;
70920;SDS011;58572;48.110;19.838;2023-02-01T07:06:21;5.88;;;2.20;;
70920;SDS011;58572;48.110;19.838;2023-02-01T07:08:48;3.97;;;2.00;;
70920;SDS011;58572;48.110;19.838;2023-02-01T07:11:16;4.30;;;2.20;;
70920;SDS011;58572;48.110;19.838;2023-02-01T07:13:44;5.97;;;2.55;;
70920;SDS011;58572;48.110;19.838;2023-02-01T07:16:12;6.07;;;2.08;;
70920;SDS011;58572;48.110;19.838;2023-02-01T07:18:42;3.75;;;1.83;;
70920;SDS011;58572;48.110;19.838;2023-02-01T07:21:09;4.75;;;2.35;;
70920;SDS011;58572;48.110;19.838;2023-02-01T07:23:37;3.30;;;1.42;;
70920;SDS011;58572;48.110;19.838;2023-02-01T07:28:33;6.30;;;2.45;;
70920;SDS011;58572;48.110;19.838;2023-02-01T07:31:03;5.13;;;2.25;;
70920;SDS011;58572;48.110;19.838;2023-02-01T07:33:32;6.72;;;2.67;;
70920;SDS011;58572;48.110;19.838;2023-02-01T07:36:02;4.60;;;2.33;;
70920;SDS011;58572;48.110;19.838;2023-02-01T07:38:31;6.63;;;2.80;;
70920;SDS011;58572;48.110;19.838;2023-02-01T07:40:58;4.53;;;2.13;;
70920;SDS011;58572;48.110;19.838;2023-02-01T07:43:26;6.97;;;2.78;;
70920;SDS011;58572;48.110;19.838;2023-02-01T07:45:53;4.93;;;2.65;;
70920;SDS011;58572;48.110;19.838;2023-02-01T07:48:22;5.25;;;2.50;;
70920;SDS011;58572;48.110;19.838;2023-02-01T07:50:56;6.57;;;2.75;;
70920;SDS011;58572;48.110;19.838;2023-02-01T07:53:26;6.88;;;3.47;;
70920;SDS011;58572;48.110;19.838;2023-02-01T07:55:55;6.25;;;3.00;;
70920;SDS011;58572;48.110;19.838;2023-02-01T07:58:22;6.45;;;3.75;;
70920;SDS011;58572;48.110;19.838;2023-02-01T08:00:50;7.85;;;3.65;;
70920;SDS011;58572;48.110;19.838;2023-02-01T08:03:35;3.72;;;1.90;;
70920;SDS011;58572;48.110;19.838;2023-02-01T08:06:02;7.05;;;3.58;;
70920;SDS011;58572;48.110;19.838;2023-02-01T08:08:33;5.35;;;2.28;;
70920;SDS011;58572;48.110;19.838;2023-02-01T08:11:00;4.45;;;2.03;;
70920;SDS011;58572;48.110;19.838;2023-02-01T08:13:29;4.55;;;2.50;;
70920;SDS011;58572;48.110;19.838;2023-02-01T08:15:57;5.00;;;3.03;;
70920;SDS011;58572;48.110;19.838;2023-02-01T08:18:25;5.93;;;2.90;;
70920;SDS011;58572;48.110;19.838;2023-02-01T08:20:53;9.43;;;3.20;;
70920;SDS011;58572;48.110;19.838;2023-02-01T08:23:21;6.85;;;3.40;;
70920;SDS011;58572;48.110;19.838;2023-02-01T08:28:17;3.70;;;2.17;;
70920;SDS011;58572;48.110;19.838;2023-02-01T08:30:45;4.18;;;2.08;;
70920;SDS011;58572;48.110;19.838;2023-02-01T08:33:13;8.32;;;2.85;;
70920;SDS011;58572;48.110;19.838;2023-02-01T08:35:40;5.35;;;2.15;;
70920;SDS011;58572;48.110;19.838;2023-02-01T08:38:07;6.38;;;2.13;;
70920;SDS011;58572;48.110;19.838;2023-02-01T08:40:34;6.88;;;2.42;;
70920;SDS011;58572;48.110;19.838;2023-02-01T08:43:03;4.93;;;2.05;;
70920;SDS011;58572;48.110;19.838;2023-02-01T08:45:31;4.00;;;2.08;;
70920;SDS011;58572;48.110;19.838;2023-02-01T08:47:59;8.93;;;2.15;;
70920;SDS011;58572;48.110;19.838;2023-02-01T08:50:26;6.60;;;1.80;;
70920;SDS011;58572;48.110;19.838;2023-02-01T08:52:53;4.07;;;1.83;;
70920;SDS011;58572;48.110;19.838;2023-02-01T08:55:20;3.53;;;1.73;;
70920;SDS011;58572;48.110;19.838;2023-02-01T08:57:47;3.05;;;1.42;;
70920;SDS011;58572;48.110;19.838;2023-02-01T09:02:44;4.60;;;2.05;;
70920;SDS011;58572;48.110;19.838;2023-02-01T09:05:12;4.45;;;1.55;;
70920;SDS011;58572;48.110;19.838;2023-02-01T09:07:41;6.88;;;1.50;;
70920;SDS011;58572;48.110;19.838;2023-02-01T09:10:09;5.50;;;1.60;;
70920;SDS011;58572;48.110;19.838;2023-02-01T09:12:37;2.20;;;1.15;;
70920;SDS011;58572;48.110;19.838;2023-02-01T09:15:05;4.63;;;1.63;;
70920;SDS011;58572;48.110;19.838;2023-02-01T09:17:35;2.47;;;1.23;;
70920;SDS011;58572;48.110;19.838;2023-02-01T09:20:03;2.97;;;1.50;;
70920;SDS011;58572;48.110;19.838;2023-02-01T09:22:30;3.20;;;1.50;;
70920;SDS011;58572;48.110;19.838;2023-02-01T09:24:57;2.92;;;1.52;;
70920;SDS011;58572;48.110;19.838;2023-02-01T09:27:25;2.72;;;1.42;;
70920;SDS011;58572;48.110;19.838;2023-02-01T09:29:52;3.10;;;1.70;;
70920;SDS011;58572;48.110;19.838;2023-02-01T09:32:21;3.45;;;1.67;;
70920;SDS011;58572;48.110;19.838;2023-02-01T09:34:50;3.80;;;1.77;;
70920;SDS011;58572;48.110;19.838;2023-02-01T09:37:18;2.47;;;1.30;;
70920;SDS011;58572;48.110;19.838;2023-02-01T09:39:46;4.50;;;1.65;;
70920;SDS011;58572;48.110;19.838;2023-02-01T09:42:30;5.05;;;2.05;;
70920;SDS011;58572;48.110;19.838;2023-02-01T09:45:20;4.93;;;2.20;;
70920;SDS011;58572;48.110;19.838;2023-02-01T09:47:55;6.65;;;2.13;;
70920;SDS011;58572;48.110;19.838;2023-02-01T09:50:30;9.80;;;1.92;;
70920;SDS011;58572;48.110;19.838;2023-02-01T09:53:02;5.82;;;1.60;;
70920;SDS011;58572;48.110;19.838;2023-02-01T09:55:32;4.15;;;1.65;;
70920;SDS011;58572;48.110;19.838;2023-02-01T09:58:06;4.63;;;2.00;;
70920;SDS011;58572;48.110;19.838;2023-02-01T10:00:40;4.53;;;1.73;;
70920;SDS011;58572;48.110;19.838;2023-02-01T10:03:11;3.47;;;1.48;;
70920;SDS011;58572;48.110;19.838;2023-02-01T10:05:47;5.30;;;1.77;;
70920;SDS011;58572;48.110;19.838;2023-02-01T10:08:39;4.20;;;1.85;;
70920;SDS011;58572;48.110;19.838;2023-02-01T10:11:27;4.82;;;1.92;;
70920;SDS011;58572;48.110;19.838;2023-02-01T10:14:15;2.95;;;1.40;;
70920;SDS011;58572;48.110;19.838;2023-02-01T10:16:55;4.13;;;1.63;;
70920;SDS011;58572;48.110;19.838;2023-02-01T10:19:32;4.38;;;1.48;;
70920;SDS011;58572;48.110;19.838;2023-02-01T10:22:13;6.72;;;1.95;;
70920;SDS011;58572;48.110;19.838;2023-02-01T10:24:49;5.28;;;2.08;;
70920;SDS011;58572;48.110;19.838;2023-02-01T10:27:25;5.70;;;1.50;;
70920;SDS011;58572;48.110;19.838;2023-02-01T10:29:59;5.20;;;1.70;;
70920;SDS011;58572;48.110;19.838;2023-02-01T10:32:33;4.78;;;1.80;;
70920;SDS011;58572;48.110;19.838;2023-02-01T10:35:04;4.43;;;1.52;;
70920;SDS011;58572;48.110;19.838;2023-02-01T10:37:41;3.05;;;1.50;;
70920;SDS011;58572;48.110;19.838;2023-02-01T10:40:12;5.97;;;2.45;;
70920;SDS011;58572;48.110;19.838;2023-02-01T10:42:44;1.67;;;1.15;;
70920;SDS011;58572;48.110;19.838;2023-02-01T10:45:13;4.40;;;1.52;;
70920;SDS011;58572;48.110;19.838;2023-02-01T10:47:44;6.57;;;2.95;;
70920;SDS011;58572;48.110;19.838;2023-02-01T10:50:15;4.22;;;2.47;;
70920;SDS011;58572;48.110;19.838;2023-02-01T10:52:48;4.25;;;2.00;;
70920;SDS011;58572;48.110;19.838;2023-02-01T10:55:29;5.38;;;2.35;;
70920;SDS011;58572;48.110;19.838;2023-02-01T10:58:02;4.82;;;2.10;;
70920;SDS011;58572;48.110;19.838;2023-02-01T11:00:34;4.60;;;2.20;;
70920;SDS011;58572;48.110;19.838;2023-02-01T11:06:11;4.97;;;1.80;;
70920;SDS011;58572;48.110;19.838;2023-02-01T11:08:47;2.95;;;1.23;;
70920;SDS011;58572;48.110;19.838;2023-02-01T11:11:16;5.38;;;1.90;;
70920;SDS011;58572;48.110;19.838;2023-02-01T11:16:11;7.43;;;2.03;;
70920;SDS011;58572;48.110;19.838;2023-02-01T11:18:40;4.57;;;1.83;;
70920;SDS011;58572;48.110;19.838;2023-02-01T11:21:08;5.25;;;1.67;;
70920;SDS011;58572;48.110;19.838;2023-02-01T11:23:40;3.78;;;2.03;;
70920;SDS011;58572;48.110;19.838;2023-02-01T11:26:14;4.65;;;2.20;;
70920;SDS011;58572;48.110;19.838;2023-02-01T11:28:50;5.60;;;1.70;;
70920;SDS011;58572;48.110;19.838;2023-02-01T11:31:20;6.53;;;2.55;;
70920;SDS011;58572;48.110;19.838;2023-02-01T11:33:51;5.38;;;1.88;;
70920;SDS011;58572;48.110;19.838;2023-02-01T11:36:21;3.85;;;1.80;;
70920;SDS011;58572;48.110;19.838;2023-02-01T11:38:53;4.45;;;2.20;;
70920;SDS011;58572;48.110;19.838;2023-02-01T11:41:35;5.28;;;2.00;;
70920;SDS011;58572;48.110;19.838;2023-02-01T11:44:16;3.58;;;1.88;;
70920;SDS011;58572;48.110;19.838;2023-02-01T11:46:47;4.60;;;2.03;;
70920;SDS011;58572;48.110;19.838;2023-02-01T11:49:20;5.60;;;1.67;;
70920;SDS011;58572;48.110;19.838;2023-02-01T11:51:53;3.17;;;1.52;;
70920;SDS011;58572;48.110;19.838;2023-02-01T11:54:41;3.63;;;1.38;;
70920;SDS011;58572;48.110;19.838;2023-02-01T11:57:33;3.95;;;1.60;;
70920;SDS011;58572;48.110;19.838;2023-02-01T12:00:18;3.53;;;1.45;;
70920;SDS011;58572;48.110;19.838;2023-02-01T12:03:01;3.13;;;1.42;;
70920;SDS011;58572;48.110;19.838;2023-02-01T12:05:43;3.60;;;1.67;;
70920;SDS011;58572;48.110;19.838;2023-02-01T12:08:26;4.97;;;1.75;;
70920;SDS011;58572;48.110;19.838;2023-02-01T12:11:22;2.60;;;1.20;;
70920;SDS011;58572;48.110;19.838;2023-02-01T12:14:18;3.90;;;2.05;;
70920;SDS011;58572;48.110;19.838;2023-02-01T12:16:59;4.63;;;1.52;;
70920;SDS011;58572;48.110;19.838;2023-02-01T12:19:57;2.90;;;1.27;;
70920;SDS011;58572;48.110;19.838;2023-02-01T12:22:36;4.68;;;1.45;;
70920;SDS011;58572;48.110;19.838;2023-02-01T12:25:18;3.30;;;1.63;;
70920;SDS011;58572;48.110;19.838;2023-02-01T12:30:57;3.58;;;1.55;;
70920;SDS011;58572;48.110;19.838;2023-02-01T12:33:43;3.33;;;1.60;;
70920;SDS011;58572;48.110;19.838;2023-02-01T12:36:23;5.70;;;1.42;;
70920;SDS011;58572;48.110;19.838;2023-02-01T12:39:01;4.00;;;1.63;;
70920;SDS011;58572;48.110;19.838;2023-02-01T12:41:41;4.18;;;1.52;;
70920;SDS011;58572;48.110;19.838;2023-02-01T12:44:19;3.25;;;1.85;;
70920;SDS011;58572;48.110;19.838;2023-02-01T12:46:59;4.00;;;1.95;;
70920;SDS011;58572;48.110;19.838;2023-02-01T12:49:34;3.10;;;1.15;;
70920;SDS011;58572;48.110;19.838;2023-02-01T12:52:10;2.90;;;1.55;;
70920;SDS011;58572;48.110;19.838;2023-02-01T12:54:43;4.47;;;1.65;;
70920;SDS011;58572;48.110;19.838;2023-02-01T12:57:16;2.35;;;1.35;;
70920;SDS011;58572;48.110;19.838;2023-02-01T12:59:51;3.75;;;1.23;;
70920;SDS011;58572;48.110;19.838;2023-02-01T13:02:27;4.90;;;2.50;;
70920;SDS011;58572;48.110;19.838;2023-02-01T13:05:03;3.08;;;1.55;;
70920;SDS011;58572;48.110;19.838;2023-02-01T13:07:39;3.72;;;1.70;;
70920;SDS011;58572;48.110;19.838;2023-02-01T13:10:12;4.45;;;1.23;;
70920;SDS011;58572;48.110;19.838;2023-02-01T13:12:44;2.42;;;1.35;;
70920;SDS011;58572;48.110;19.838;2023-02-01T13:17:48;6.57;;;1.35;;
70920;SDS011;58572;48.110;19.838;2023-02-01T13:20:21;4.45;;;1.23;;
70920;SDS011;58572;48.110;19.838;2023-02-01T13:22:53;5.03;;;1.40;;
70920;SDS011;58572;48.110;19.838;2023-02-01T13:25:27;2.33;;;1.17;;
70920;SDS011;58572;48.110;19.838;2023-02-01T13:28:02;1.88;;;1.02;;
70920;SDS011;58572;48.110;19.838;2023-02-01T13:30:38;2.78;;;1.40;;
70920;SDS011;58572;48.110;19.838;2023-02-01T13:36:20;2.15;;;1.13;;
70920;SDS011;58572;48.110;19.838;2023-02-01T13:42:13;3.20;;;1.60;;
70920;SDS011;58572;48.110;19.838;2023-02-01T13:44:44;3.25;;;1.38;;
70920;SDS011;58572;48.110;19.838;2023-02-01T13:47:16;2.35;;;1.40;;
70920;SDS011;58572;48.110;19.838;2023-02-01T13:49:52;2.40;;;1.40;;
70920;SDS011;58572;48.110;19.838;2023-02-01T13:52:26;2.83;;;1.35;;
70920;SDS011;58572;48.110;19.838;2023-02-01T13:57:52;4.45;;;2.20;;
70920;SDS011;58572;48.110;19.838;2023-02-01T14:00:28;3.10;;;1.35;;
70920;SDS011;58572;48.110;19.838;2023-02-01T14:05:57;2.40;;;1.20;;
70920;SDS011;58572;48.110;19.838;2023-02-01T14:08:40;1.52;;;0.90;;
70920;SDS011;58572;48.110;19.838;2023-02-01T14:23:30;2.53;;;1.23;;
70920;SDS011;58572;48.110;19.838;2023-02-01T14:26:11;3.40;;;1.50;;
70920;SDS011;58572;48.110;19.838;2023-02-01T14:28:43;3.28;;;1.33;;
70920;SDS011;58572;48.110;19.838;2023-02-01T14:34:15;2.03;;;1.02;;
70920;SDS011;58572;48.110;19.838;2023-02-01T14:36:47;2.97;;;0.73;;
70920;SDS011;58572;48.110;19.838;2023-02-01T14:39:26;2.45;;;1.48;;
70920;SDS011;58572;48.110;19.838;2023-02-01T14:41:57;3.03;;;1.50;;
70920;SDS011;58572;48.110;19.838;2023-02-01T14:44:29;2.42;;;1.30;;
70920;SDS011;58572;48.110;19.838;2023-02-01T14:50:03;3.08;;;1.73;;
70920;SDS011;58572;48.110;19.838;2023-02-01T14:52:39;3.42;;;1.30;;
70920;SDS011;58572;48.110;19.838;2023-02-01T14:55:11;2.03;;;1.02;;
70920;SDS011;58572;48.110;19.838;2023-02-01T14:57:42;3.78;;;1.50;;
70920;SDS011;58572;48.110;19.838;2023-02-01T15:00:19;13.85;;;5.30;;
70920;SDS011;58572;48.110;19.838;2023-02-01T15:02:50;10.80;;;4.07;;
70920;SDS011;58572;48.110;19.838;2023-02-01T15:05:28;4.97;;;2.65;;
70920;SDS011;58572;48.110;19.838;2023-02-01T15:07:58;5.45;;;2.13;;
70920;SDS011;58572;48.110;19.838;2023-02-01T15:10:33;3.60;;;1.80;;
70920;SDS011;58572;48.110;19.838;2023-02-01T15:13:13;5.10;;;1.73;;
70920;SDS011;58572;48.110;19.838;2023-02-01T15:15:59;3.03;;;1.35;;
70920;SDS011;58572;48.110;19.838;2023-02-01T15:18:27;3.60;;;1.75;;
70920;SDS011;58572;48.110;19.838;2023-02-01T15:20:57;5.07;;;2.03;;
70920;SDS011;58572;48.110;19.838;2023-02-01T15:23:25;3.42;;;1.63;;
70920;SDS011;58572;48.110;19.838;2023-02-01T15:25:56;3.83;;;1.63;;
70920;SDS011;58572;48.110;19.838;2023-02-01T15:28:24;6.38;;;1.90;;
70920;SDS011;58572;48.110;19.838;2023-02-01T15:30:54;5.70;;;1.92;;
70920;SDS011;58572;48.110;19.838;2023-02-01T15:33:24;4.72;;;2.30;;
70920;SDS011;58572;48.110;19.838;2023-02-01T15:35:52;2.55;;;1.40;;
70920;SDS011;58572;48.110;19.838;2023-02-01T15:38:24;6.90;;;2.55;;
70920;SDS011;58572;48.110;19.838;2023-02-01T15:41:00;5.38;;;2.25;;
70920;SDS011;58572;48.110;19.838;2023-02-01T15:43:30;3.63;;;1.70;;
70920;SDS011;58572;48.110;19.838;2023-02-01T15:45:59;5.88;;;1.73;;
70920;SDS011;58572;48.110;19.838;2023-02-01T15:48:29;5.30;;;1.80;;
70920;SDS011;58572;48.110;19.838;2023-02-01T15:51:01;2.83;;;1.48;;
70920;SDS011;58572;48.110;19.838;2023-02-01T15:53:29;3.13;;;1.52;;
70920;SDS011;58572;48.110;19.838;2023-02-01T15:56:00;5.10;;;2.72;;
70920;SDS011;58572;48.110;19.838;2023-02-01T15:58:30;2.97;;;1.52;;
70920;SDS011;58572;48.110;19.838;2023-02-01T16:00:59;7.18;;;2.53;;